Time;durP1;ratioP1;P1;durP2;ratioP2;P2;SDS_P1;SDS_P2;PMS_P1;PMS_P2;Temp;Humidity;BMP_temperature;BMP_pressure;BME280_temperature;BME280_humidity;BME280_pressure;Samples;Min_cycle;Max_cycle;Signal;HPM_P1;HPM_P2
2020/12/08 00:02:22;;;;;;;18.83;13.77;;;;;;;7.32;72.11;99425.94;4945639;28;98971;-66
2020/12/08 00:04:49;;;;;;;17.95;13.77;;;;;;;7.42;71.69;99431.50;4946910;28;96851;-65
2020/12/08 00:07:15;;;;;;;17.92;14.88;;;;;;;7.35;72.42;99421.44;4930726;28;99201;-66
2020/12/08 00:09:41;;;;;;;16.48;14.35;;;;;;;7.37;72.53;99423.94;4930296;28;99069;-66
2020/12/08 00:12:07;;;;;;;16.15;13.00;;;;;;;7.38;72.16;99424.78;4943948;28;98601;-65
2020/12/08 00:14:34;;;;;;;18.50;16.20;;;;;;;7.33;72.43;99418.06;4943551;28;97324;-65
2020/12/08 00:17:01;;;;;;;16.25;13.43;;;;;;;7.46;71.85;99417.47;4928870;28;97853;-66
2020/12/08 00:19:28;;;;;;;18.50;15.02;;;;;;;7.44;72.39;99409.75;4942237;28;98702;-65
2020/12/08 00:21:55;;;;;;;22.38;15.32;;;;;;;7.46;72.30;99412.28;4940251;28;98640;-65
2020/12/08 00:24:21;;;;;;;17.20;13.75;;;;;;;7.50;71.70;99411.19;4941744;28;97585;-65
2020/12/08 00:26:47;;;;;;;16.98;15.20;;;;;;;7.45;71.80;99406.25;4945024;28;99729;-66
2020/12/08 00:29:14;;;;;;;16.15;13.20;;;;;;;7.37;72.71;99405.81;4943123;28;98656;-65
2020/12/08 00:31:40;;;;;;;18.33;14.07;;;;;;;7.37;72.10;99392.84;4942644;28;99510;-65
2020/12/08 00:34:06;;;;;;;15.68;12.27;;;;;;;7.41;71.69;99398.72;4942947;28;98005;-65
2020/12/08 00:36:33;;;;;;;13.63;11.32;;;;;;;7.41;71.99;99399.56;4942799;28;97859;-66
2020/12/08 00:38:59;;;;;;;14.23;11.50;;;;;;;7.26;71.78;99395.97;4941674;28;99019;-66
2020/12/08 00:41:26;;;;;;;13.20;8.95;;;;;;;7.34;71.77;99396.41;4942617;28;97554;-66
2020/12/08 00:43:52;;;;;;;13.70;12.05;;;;;;;7.24;72.14;99392.59;4940802;28;96886;-66
2020/12/08 00:46:19;;;;;;;24.50;11.70;;;;;;;7.22;72.34;99391.00;4941469;28;100474;-67
2020/12/08 00:48:46;;;;;;;11.52;10.32;;;;;;;7.28;72.06;99388.94;4942044;28;98564;-66
2020/12/08 00:51:13;;;;;;;14.15;9.95;;;;;;;7.20;72.02;99385.91;4938590;28;97470;-66
2020/12/08 00:53:40;;;;;;;12.85;11.30;;;;;;;7.29;72.01;99380.25;4941060;28;102044;-66
2020/12/08 00:56:13;;;;;;;10.95;9.52;;;;;;;7.27;72.11;99376.91;4929843;28;96641;-66
2020/12/08 00:58:44;;;;;;;14.75;10.23;;;;;;;7.16;72.41;99384.38;4924623;28;99843;-66
2020/12/08 01:01:11;;;;;;;12.05;7.53;;;;;;;7.36;70.97;99370.44;4943875;28;100112;-66
2020/12/08 01:03:38;;;;;;;9.55;8.50;;;;;;;7.23;72.15;99385.75;4928616;28;96939;-66
2020/12/08 01:06:08;;;;;;;14.00;8.85;;;;;;;7.16;71.46;99378.34;4930611;28;96896;-66
2020/12/08 01:08:35;;;;;;;10.10;8.63;;;;;;;7.04;71.77;99370.28;4913228;28;97481;-67
2020/12/08 01:11:01;;;;;;;10.55;7.38;;;;;;;7.15;72.09;99359.38;4929848;28;99959;-66
2020/12/08 01:13:34;;;;;;;8.43;7.38;;;;;;;7.14;73.00;99364.63;4931292;28;97592;-66
2020/12/08 01:16:05;;;;;;;14.43;9.45;;;;;;;7.16;72.80;99363.66;4946376;28;96762;-65
2020/12/08 01:18:32;;;;;;;13.48;8.82;;;;;;;7.20;72.42;99359.16;4946221;28;100416;-66
2020/12/08 01:20:59;;;;;;;8.93;8.02;;;;;;;7.14;72.37;99346.47;4947726;28;99501;-65
2020/12/08 01:23:27;;;;;;;9.60;8.63;;;;;;;7.15;73.37;99351.59;4961155;28;97674;-66
2020/12/08 01:25:54;;;;;;;8.88;7.97;;;;;;;7.09;73.51;99344.16;4967950;28;99877;-65
2020/12/08 01:28:22;;;;;;;9.02;7.57;;;;;;;7.20;72.84;99339.25;4961444;28;98544;-67
2020/12/08 01:30:51;;;;;;;10.63;8.15;;;;;;;7.19;72.82;99336.72;4951126;28;99210;-66
2020/12/08 01:33:17;;;;;;;16.35;9.43;;;;;;;7.21;73.06;99338.34;4933108;28;96750;-66
2020/12/08 01:35:44;;;;;;;10.23;8.48;;;;;;;7.15;73.02;99325.69;4963134;28;96932;-66
2020/12/08 01:38:10;;;;;;;9.27;6.95;;;;;;;7.03;73.05;99327.16;4946880;28;99997;-67
2020/12/08 01:40:37;;;;;;;8.77;7.95;;;;;;;7.08;73.52;99324.31;4963655;28;98418;-67
2020/12/08 01:43:04;;;;;;;9.25;8.20;;;;;;;7.04;73.60;99327.97;4960351;28;97475;-66
2020/12/08 01:45:34;;;;;;;10.18;8.23;;;;;;;7.06;73.19;99320.97;4963053;28;96888;-66
2020/12/08 01:48:00;;;;;;;8.20;7.00;;;;;;;7.08;73.32;99319.13;4963232;28;98748;-66
2020/12/08 01:50:29;;;;;;;8.23;7.43;;;;;;;7.10;73.57;99312.13;4934289;28;99571;-67
2020/12/08 01:52:55;;;;;;;8.52;7.65;;;;;;;7.15;73.01;99310.13;4947331;28;99264;-66
2020/12/08 01:55:22;;;;;;;8.73;7.85;;;;;;;7.07;73.28;99305.31;4949679;28;96707;-66
2020/12/08 01:57:49;;;;;;;8.10;7.13;;;;;;;7.15;73.51;99304.97;4917416;28;99866;-66
2020/12/08 02:00:20;;;;;;;8.85;7.78;;;;;;;7.11;74.12;99303.44;4965579;28;98629;-66
2020/12/08 02:02:46;;;;;;;10.23;9.23;;;;;;;7.21;73.00;99299.44;4948269;28;98304;-67
2020/12/08 02:05:31;;;;;;;10.85;8.77;;;;;;;7.20;73.14;99291.75;4962287;28;98115;-67
2020/12/08 02:07:58;;;;;;;10.38;9.27;;;;;;;7.31;72.49;99279.91;4933055;28;100382;-67
2020/12/08 02:10:26;;;;;;;9.18;7.70;;;;;;;7.31;72.61;99285.09;4949284;28;99628;-67
2020/12/08 02:12:55;;;;;;;8.23;7.43;;;;;;;7.29;72.41;99281.72;4946132;28;97293;-67
2020/12/08 02:15:30;;;;;;;9.88;8.88;;;;;;;7.30;72.41;99272.22;4965691;28;98143;-66
2020/12/08 02:17:59;;;;;;;8.88;7.97;;;;;;;7.34;72.48;99265.94;4947232;28;100521;-65
2020/12/08 02:20:29;;;;;;;8.88;7.78;;;;;;;7.31;73.13;99259.19;4965513;28;99935;-66
2020/12/08 02:22:56;;;;;;;8.82;7.68;;;;;;;7.28;72.97;99253.31;4932699;28;100130;-67
2020/12/08 02:25:24;;;;;;;13.20;7.82;;;;;;;7.37;72.16;99244.22;4911318;28;96773;-67
2020/12/08 02:27:51;;;;;;;10.40;8.27;;;;;;;7.33;72.23;99243.53;4944638;28;99630;-66
2020/12/08 02:30:18;;;;;;;8.80;7.93;;;;;;;7.29;72.77;99239.44;4948685;28;98453;-67
2020/12/08 02:32:44;;;;;;;8.38;7.57;;;;;;;7.30;72.46;99241.13;4945276;28;97937;-66
2020/12/08 02:35:11;;;;;;;8.13;7.32;;;;;;;7.28;72.91;99246.38;4946575;28;97692;-66
2020/12/08 02:37:37;;;;;;;9.65;8.65;;;;;;;7.25;73.25;99246.53;4942667;28;98465;-75
2020/12/08 02:40:05;;;;;;;8.98;7.80;;;;;;;7.24;73.02;99237.06;4928599;28;98626;-66
2020/12/08 02:42:33;;;;;;;9.27;8.40;;;;;;;7.30;73.11;99231.59;4932351;28;98467;-66
2020/12/08 02:45:00;;;;;;;13.23;9.07;;;;;;;7.38;72.42;99231.16;4938312;28;97793;-66
2020/12/08 02:47:30;;;;;;;10.18;9.07;;;;;;;7.42;72.27;99224.06;4937749;28;100069;-66
2020/12/08 02:49:56;;;;;;;12.95;9.48;;;;;;;7.45;71.98;99223.91;4954504;28;98620;-66
2020/12/08 02:52:23;;;;;;;8.80;7.90;;;;;;;7.46;72.21;99215.22;4936973;28;96690;-66
2020/12/08 02:54:49;;;;;;;10.23;9.18;;;;;;;7.45;72.58;99209.16;4937320;28;96854;-66
2020/12/08 02:57:16;;;;;;;9.57;8.50;;;;;;;7.40;72.81;99200.81;4937132;28;100212;-66
2020/12/08 02:59:44;;;;;;;10.45;9.38;;;;;;;7.45;72.60;99197.97;4937392;28;100095;-66
2020/12/08 03:02:14;;;;;;;11.25;10.15;;;;;;;7.29;72.86;99188.41;4937671;28;96644;-66
2020/12/08 03:04:47;;;;;;;10.50;9.50;;;;;;;7.35;73.06;99190.69;4930982;28;96599;-66
2020/12/08 03:07:15;;;;;;;15.38;9.98;;;;;;;7.51;72.13;99167.38;4954825;28;98634;-66
2020/12/08 03:09:44;;;;;;;10.77;9.27;;;;;;;7.41;72.39;99181.75;4937971;28;98658;-66
2020/12/08 03:12:12;;;;;;;10.20;9.10;;;;;;;7.33;72.77;99176.13;4951003;28;96541;-67
2020/12/08 03:14:40;;;;;;;11.77;10.25;;;;;;;7.40;72.73;99171.44;4938508;28;96546;-66
2020/12/08 03:17:14;;;;;;;13.53;10.53;;;;;;;7.25;73.13;99166.19;4952895;28;98388;-66
2020/12/08 03:19:41;;;;;;;11.95;10.75;;;;;;;7.35;72.48;99167.38;4936935;28;99849;-66
2020/12/08 03:22:07;;;;;;;13.40;10.25;;;;;;;7.31;73.04;99160.66;4936538;28;96771;-66
2020/12/08 03:24:44;;;;;;;12.45;10.57;;;;;;;7.42;72.46;99164.44;4936564;28;96579;-67
2020/12/08 03:27:11;;;;;;;11.57;10.38;;;;;;;7.53;71.96;99160.34;4935773;28;99898;-67
2020/12/08 03:29:39;;;;;;;11.05;9.88;;;;;;;7.31;73.17;99165.84;4934128;28;99940;-67
2020/12/08 03:32:09;;;;;;;12.63;11.10;;;;;;;7.36;73.09;99157.84;4936880;28;96661;-66
2020/12/08 03:34:36;;;;;;;14.55;12.90;;;;;;;7.47;72.56;99152.06;4925528;28;96715;-67
2020/12/08 03:37:03;;;;;;;11.88;10.60;;;;;;;7.50;72.57;99155.31;4950705;28;100194;-66
2020/12/08 03:39:31;;;;;;;11.60;10.40;;;;;;;7.50;72.58;99155.31;4952303;28;99871;-66
2020/12/08 03:41:59;;;;;;;13.68;12.18;;;;;;;7.41;72.86;99166.19;4933286;28;96549;-66
2020/12/08 03:44:28;;;;;;;10.57;9.57;;;;;;;7.45;72.50;99172.03;4947747;28;97982;-66
2020/12/08 03:46:59;;;;;;;11.18;9.98;;;;;;;7.41;72.84;99165.38;4948008;28;99957;-66
2020/12/08 03:49:27;;;;;;;12.75;11.43;;;;;;;7.39;73.46;99174.97;4947505;28;98792;-67
2020/12/08 03:51:56;;;;;;;12.82;11.65;;;;;;;7.32;73.47;99174.47;4952670;28;96725;-67
2020/12/08 03:54:23;;;;;;;11.45;10.35;;;;;;;7.28;73.62;99166.00;4936344;28;96604;-66
2020/12/08 03:56:50;;;;;;;12.43;11.25;;;;;;;7.27;74.03;99164.34;4951928;28;99921;-66
2020/12/08 03:59:19;;;;;;;12.60;11.30;;;;;;;7.24;73.83;99164.50;4952722;28;100097;-67
2020/12/08 04:01:56;;;;;;;12.15;10.93;;;;;;;7.36;73.45;99155.25;4948315;28;96668;-66
2020/12/08 04:04:23;;;;;;;13.40;11.98;;;;;;;7.30;73.96;99150.38;4952033;28;96621;-66
2020/12/08 04:06:50;;;;;;;13.80;12.43;;;;;;;7.19;73.64;99145.78;4935626;28;99802;-65
2020/12/08 04:09:16;;;;;;;13.13;11.75;;;;;;;7.23;74.48;99136.06;4936619;28;100120;-66
2020/12/08 04:11:43;;;;;;;12.18;11.02;;;;;;;7.29;73.84;99141.75;4953820;28;96740;-67
2020/12/08 04:14:10;;;;;;;14.27;12.77;;;;;;;7.27;74.11;99130.63;4936745;28;96701;-67
2020/12/08 04:16:38;;;;;;;12.75;11.45;;;;;;;7.17;74.52;99141.59;4935857;28;100062;-67
2020/12/08 04:19:09;;;;;;;12.38;11.18;;;;;;;7.30;73.73;99132.25;4952025;28;99782;-67
2020/12/08 04:21:35;;;;;;;13.35;11.98;;;;;;;7.45;73.57;99130.53;4959918;28;96662;-67
2020/12/08 04:24:13;;;;;;;12.95;11.65;;;;;;;7.38;73.47;99130.06;4956240;28;96802;-67
2020/12/08 04:26:44;;;;;;;13.40;11.85;;;;;;;7.40;73.64;99127.38;4955379;28;99859;-67
2020/12/08 04:29:11;;;;;;;13.43;12.13;;;;;;;7.34;73.32;99120.75;4971932;28;100006;-67
2020/12/08 04:31:42;;;;;;;16.85;12.98;;;;;;;7.30;73.74;99119.28;4945658;28;96652;-67
2020/12/08 04:34:08;;;;;;;13.90;12.40;;;;;;;7.29;73.93;99123.59;4972632;28;96779;-67
2020/12/08 04:36:34;;;;;;;12.88;11.68;;;;;;;7.25;74.48;99114.34;4975727;28;98587;-67
2020/12/08 04:39:01;;;;;;;13.68;12.23;;;;;;;7.32;73.30;99113.09;4976416;28;98689;-67
2020/12/08 04:41:27;;;;;;;13.07;11.75;;;;;;;7.33;73.75;99106.13;4976474;28;96663;-68
2020/12/08 04:43:54;;;;;;;11.85;10.73;;;;;;;7.47;72.73;99106.22;4970246;28;96737;-68
2020/12/08 04:46:21;;;;;;;13.15;11.85;;;;;;;7.52;72.49;99104.22;4976568;28;98580;-68
2020/12/08 04:48:48;;;;;;;12.98;11.68;;;;;;;7.45;72.65;99102.03;4976405;28;97579;-67
2020/12/08 04:51:15;;;;;;;12.13;11.02;;;;;;;7.41;72.54;99100.53;4976876;28;97129;-68
2020/12/08 04:53:41;;;;;;;10.68;9.70;;;;;;;7.42;72.63;99097.03;4976849;28;96723;-67
2020/12/08 04:56:08;;;;;;;10.10;9.20;;;;;;;7.16;73.14;99094.09;4974998;28;98496;-67
2020/12/08 04:58:34;;;;;;;10.68;9.68;;;;;;;7.23;73.44;99102.38;4977135;28;98607;-67
2020/12/08 05:01:01;;;;;;;10.75;9.75;;;;;;;7.31;72.97;99098.44;4976362;28;96601;-68
2020/12/08 05:03:28;;;;;;;9.77;8.85;;;;;;;7.33;72.48;99094.00;4958885;28;97110;-67
2020/12/08 05:05:54;;;;;;;9.20;8.30;;;;;;;7.32;72.60;99099.28;4975670;28;98682;-67
2020/12/08 05:08:21;;;;;;;9.48;8.57;;;;;;;7.26;73.38;99095.28;4976510;28;98212;-67
2020/12/08 05:10:47;;;;;;;9.23;8.32;;;;;;;7.39;72.56;99097.19;4976529;28;96655;-67
2020/12/08 05:13:20;;;;;;;10.07;9.18;;;;;;;7.33;72.88;99091.41;4976847;28;97350;-66
2020/12/08 05:16:00;;;;;;;10.13;8.85;;;;;;;7.33;73.07;99086.22;4975941;28;98540;-67
2020/12/08 05:18:27;;;;;;;9.52;8.63;;;;;;;7.38;72.61;99082.56;4970572;28;98448;-67
2020/12/08 05:20:53;;;;;;;8.95;8.15;;;;;;;7.37;72.60;99097.28;4963352;28;97733;-67
2020/12/08 05:23:20;;;;;;;8.43;7.63;;;;;;;7.45;72.47;99089.06;4946199;28;98010;-67
2020/12/08 05:25:46;;;;;;;7.82;7.13;;;;;;;7.39;72.60;99079.88;4915764;28;98596;-67
2020/12/08 05:28:19;;;;;;;7.97;7.28;;;;;;;7.50;72.17;99072.31;4946855;28;101081;-67
2020/12/08 05:30:46;;;;;;;7.78;7.07;;;;;;;7.55;72.08;99069.47;4944100;28;98999;-67
2020/12/08 05:33:17;;;;;;;9.02;8.13;;;;;;;7.49;72.23;99073.25;4943509;28;96875;-67
2020/12/08 05:35:46;;;;;;;7.38;6.75;;;;;;;7.41;72.49;99062.50;4946015;28;98466;-66
2020/12/08 05:38:16;;;;;;;7.70;7.00;;;;;;;7.33;72.23;99059.47;4943437;28;98782;-66
2020/12/08 05:40:45;;;;;;;7.85;6.45;;;;;;;7.19;72.86;99054.22;4946855;28;97007;-67
2020/12/08 05:43:12;;;;;;;8.13;7.43;;;;;;;7.23;73.10;99063.50;4930434;28;97477;-67
2020/12/08 05:45:38;;;;;;;7.65;6.95;;;;;;;7.34;71.99;99056.78;4943654;28;97624;-67
2020/12/08 05:48:05;;;;;;;7.72;7.05;;;;;;;7.40;72.60;99059.97;4947248;28;98639;-67
2020/12/08 05:50:31;;;;;;;7.25;6.55;;;;;;;7.43;71.76;99054.63;4942070;28;97349;-67
2020/12/08 05:52:59;;;;;;;7.93;7.18;;;;;;;7.33;71.99;99055.13;4945217;28;96705;-67
2020/12/08 05:55:30;;;;;;;6.72;6.10;;;;;;;7.28;72.24;99056.31;4939744;28;98644;-66
2020/12/08 05:58:23;;;;;;;6.47;5.88;;;;;;;7.25;72.61;99053.91;4949749;28;98791;-66
2020/12/08 06:00:49;;;;;;;7.38;6.68;;;;;;;7.38;71.56;99048.84;4940087;28;97750;-64
2020/12/08 06:03:16;;;;;;;6.65;6.07;;;;;;;7.45;71.51;99045.81;4910403;28;97476;-66
2020/12/08 06:05:44;;;;;;;7.18;6.47;;;;;;;7.40;71.76;99049.59;4950241;28;98521;-66
2020/12/08 06:08:18;;;;;;;6.15;5.55;;;;;;;7.23;72.49;99043.59;4955240;28;98504;-66
2020/12/08 06:10:51;;;;;;;6.47;5.88;;;;;;;7.41;71.79;99036.56;4954787;28;97358;-66
2020/12/08 06:13:31;;;;;;;6.88;6.18;;;;;;;7.43;71.87;99041.66;4946639;28;96787;-66
2020/12/08 06:16:00;;;;;;;6.40;5.90;;;;;;;7.37;72.11;99048.03;4944226;28;98638;-66
2020/12/08 06:18:32;;;;;;;5.82;5.32;;;;;;;7.33;72.32;99039.56;4945421;28;99806;-66
2020/12/08 06:20:59;;;;;;;5.72;5.22;;;;;;;7.29;72.85;99032.03;4942061;28;98169;-66
2020/12/08 06:23:25;;;;;;;6.28;5.68;;;;;;;7.33;72.31;99029.19;4943665;28;98116;-66
2020/12/08 06:26:01;;;;;;;5.82;5.32;;;;;;;7.33;72.57;99029.19;4943322;28;98499;-66
2020/12/08 06:28:28;;;;;;;5.57;5.07;;;;;;;7.27;72.70;99026.13;4943878;28;98454;-66
2020/12/08 06:31:04;;;;;;;5.80;5.30;;;;;;;7.35;72.55;99026.53;4943332;28;96751;-66
2020/12/08 06:33:31;;;;;;;5.88;5.38;;;;;;;7.39;71.84;99022.84;4950742;28;97119;-66
2020/12/08 06:36:01;;;;;;;5.50;5.00;;;;;;;7.48;71.93;99030.09;4941974;28;98786;-66
2020/12/08 06:38:27;;;;;;;6.40;5.80;;;;;;;7.32;72.57;99027.53;4944289;28;99034;-66
2020/12/08 06:40:54;;;;;;;5.57;5.07;;;;;;;7.49;71.97;99043.91;4941866;28;96673;-66
2020/12/08 06:43:21;;;;;;;5.38;4.88;;;;;;;7.46;71.60;99038.91;4947144;28;97791;-67
2020/12/08 06:45:48;;;;;;;4.97;4.57;;;;;;;7.47;71.57;99040.56;4943550;28;98523;-67
2020/12/08 06:48:18;;;;;;;5.32;4.82;;;;;;;7.46;71.18;99038.91;4946097;28;98464;-67
2020/12/08 06:50:45;;;;;;;6.53;4.80;;;;;;;7.42;71.67;99038.22;4941752;28;96971;-67
2020/12/08 06:53:11;;;;;;;4.60;4.20;;;;;;;7.33;71.88;99031.78;4947912;28;98929;-66
2020/12/08 06:55:48;;;;;;;4.90;4.50;;;;;;;7.28;71.61;99035.56;4946949;28;98567;-66
2020/12/08 06:58:15;;;;;;;5.65;5.10;;;;;;;7.32;71.79;99035.31;4943671;28;98626;-64
2020/12/08 07:00:44;;;;;;;5.25;4.75;;;;;;;7.39;71.88;99032.38;4944227;28;98230;-66
2020/12/08 07:03:12;;;;;;;4.88;4.43;;;;;;;7.39;72.16;99037.56;4944654;28;97375;-67
2020/12/08 07:05:38;;;;;;;4.68;4.25;;;;;;;7.33;72.13;99034.38;4934929;28;97704;-67
2020/12/08 07:08:06;;;;;;;4.20;3.90;;;;;;;7.47;71.55;99040.56;4949430;28;99070;-68
2020/12/08 07:10:39;;;;;;;4.05;3.75;;;;;;;7.30;72.56;99034.56;4950864;28;97097;-68
2020/12/08 07:13:17;;;;;;;4.38;3.97;;;;;;;7.38;71.93;99031.53;4949345;28;96603;-67
2020/12/08 07:15:48;;;;;;;4.05;3.75;;;;;;;7.35;72.81;99026.53;4952027;28;98594;-68
2020/12/08 07:18:14;;;;;;;4.07;3.72;;;;;;;7.35;72.30;99026.53;4951419;28;98777;-67
2020/12/08 07:20:41;;;;;;;3.53;3.22;;;;;;;7.42;72.61;99029.63;4954068;28;96587;-63
2020/12/08 07:23:09;;;;;;;5.75;4.13;;;;;;;7.39;72.42;99027.19;4953822;28;96960;-62
2020/12/08 07:25:36;;;;;;;4.95;4.07;;;;;;;7.38;72.71;99021.16;4953269;28;98495;-64
2020/12/08 07:28:06;;;;;;;3.65;3.35;;;;;;;7.47;71.79;99019.81;4953310;28;98425;-67
2020/12/08 07:30:32;;;;;;;4.65;3.53;;;;;;;7.46;72.46;99024.19;4953408;28;96984;-66
2020/12/08 07:33:11;;;;;;;3.30;3.00;;;;;;;7.53;71.44;99024.66;4953250;28;96658;-66
2020/12/08 07:35:42;;;;;;;3.03;2.83;;;;;;;7.56;71.48;99016.69;4953240;28;98425;-66
2020/12/08 07:38:09;;;;;;;3.38;3.08;;;;;;;7.50;72.07;99019.63;4949343;28;98627;-66
2020/12/08 07:40:36;;;;;;;3.53;3.20;;;;;;;7.64;71.76;99024.88;4935926;28;96516;-66
2020/12/08 07:43:03;;;;;;;4.18;3.78;;;;;;;7.45;72.38;99024.25;4959092;28;96601;-66
2020/12/08 07:45:40;;;;;;;3.70;3.40;;;;;;;7.30;73.73;99018.19;4953251;28;96712;-66
2020/12/08 07:48:10;;;;;;;4.00;3.65;;;;;;;7.50;72.96;99019.63;4954073;28;98670;-66
2020/12/08 07:50:37;;;;;;;4.82;4.32;;;;;;;7.60;72.63;99007.81;4953220;28;96751;-62
2020/12/08 07:53:08;;;;;;;4.68;3.45;;;;;;;7.63;72.45;99012.00;4953186;28;96728;-65
2020/12/08 07:55:53;;;;;;;3.75;3.45;;;;;;;7.60;72.17;99005.22;4952455;28;98507;-67
2020/12/08 07:58:19;;;;;;;5.75;3.33;;;;;;;7.69;71.94;99011.66;4953854;28;98551;-69
2020/12/08 08:00:46;;;;;;;3.33;3.03;;;;;;;7.69;71.83;99009.88;4947507;28;96574;-69
2020/12/08 08:03:12;;;;;;;2.95;2.65;;;;;;;7.60;71.82;99005.22;4953879;28;96535;-70
2020/12/08 08:05:38;;;;;;;3.13;2.92;;;;;;;7.69;71.88;99003.88;4954250;28;98704;-70
2020/12/08 08:08:05;;;;;;;3.15;2.88;;;;;;;7.68;71.79;99007.38;4953319;28;98585;-70
2020/12/08 08:10:31;;;;;;;2.30;2.20;;;;;;;7.66;72.50;99012.66;4952681;28;96522;-69
2020/12/08 08:12:57;;;;;;;2.92;2.72;;;;;;;7.66;72.00;99015.25;4953426;28;96642;-70
2020/12/08 08:15:23;;;;;;;2.25;2.10;;;;;;;7.65;72.29;99005.78;4952782;28;98226;-69
2020/12/08 08:17:50;;;;;;;2.28;2.10;;;;;;;7.70;71.52;99006.38;4952052;28;98524;-69
2020/12/08 08:20:16;;;;;;;2.20;2.00;;;;;;;7.69;71.74;99003.88;4952357;28;96588;-69
2020/12/08 08:22:42;;;;;;;2.15;1.80;;;;;;;7.57;71.93;99003.66;4951479;28;97239;-70
2020/12/08 08:25:09;;;;;;;2.20;2.00;;;;;;;7.72;71.33;99009.69;4933032;28;98466;-71
2020/12/08 08:27:35;;;;;;;3.03;1.58;;;;;;;7.71;71.04;99008.03;4952509;28;98622;-71
2020/12/08 08:30:02;;;;;;;2.22;1.70;;;;;;;7.69;71.46;99009.88;4950929;28;97945;-68
2020/12/08 08:32:29;;;;;;;1.95;1.85;;;;;;;7.55;71.45;99009.84;4953613;28;96739;-67
2020/12/08 08:34:55;;;;;;;2.58;2.38;;;;;;;7.57;71.69;99005.41;4951628;28;98436;-68
2020/12/08 08:37:21;;;;;;;2.20;1.85;;;;;;;7.66;71.71;99011.81;4952824;28;98575;-71
2020/12/08 08:39:48;;;;;;;1.95;1.75;;;;;;;7.61;71.01;99004.28;4951947;28;96493;-69
2020/12/08 08:42:14;;;;;;;1.90;1.80;;;;;;;7.57;71.31;99008.00;4953155;28;97736;-68
2020/12/08 08:44:41;;;;;;;2.20;2.00;;;;;;;7.61;71.06;99004.28;4952349;28;97529;-70
2020/12/08 08:47:07;;;;;;;1.60;1.50;;;;;;;7.71;70.72;99004.59;4952653;28;98403;-69
2020/12/08 08:49:33;;;;;;;1.48;1.38;;;;;;;7.68;71.07;99003.03;4953168;28;96691;-70
2020/12/08 08:52:00;;;;;;;1.77;1.50;;;;;;;7.65;71.25;99012.75;4934905;28;97016;-71
2020/12/08 08:54:26;;;;;;;2.80;1.63;;;;;;;7.75;70.68;99008.69;4952554;28;97514;-68
2020/12/08 08:56:56;;;;;;;1.52;1.42;;;;;;;7.69;70.88;99009.88;4952249;28;97507;-72
2020/12/08 08:59:22;;;;;;;1.77;1.67;;;;;;;7.57;72.05;99000.22;4953138;28;96609;-71
2020/12/08 09:01:49;;;;;;;1.60;1.50;;;;;;;7.52;72.05;99002.25;4952693;28;97000;-71
2020/12/08 09:04:15;;;;;;;1.35;1.27;;;;;;;7.63;70.67;98994.69;4952050;28;98561;-70
2020/12/08 09:06:41;;;;;;;1.40;1.30;;;;;;;7.70;70.43;98997.75;4952660;28;98772;-70
2020/12/08 09:09:08;;;;;;;3.20;1.60;;;;;;;7.70;70.51;98998.59;4946443;28;98255;-72
2020/12/08 09:11:35;;;;;;;1.10;1.10;;;;;;;7.75;70.33;98993.97;4961887;28;97458;-79
2020/12/08 09:14:01;;;;;;;1.15;1.13;;;;;;;7.75;69.98;98993.97;4952877;28;98567;-78
2020/12/08 09:16:27;;;;;;;1.42;1.38;;;;;;;7.67;70.60;98998.78;4961402;28;98685;-76
2020/12/08 09:18:54;;;;;;;1.48;1.38;;;;;;;7.83;69.83;98996.13;4971750;28;96992;-76
2020/12/08 09:21:21;;;;;;;1.55;1.45;;;;;;;7.69;70.01;98990.91;4967167;28;96656;-73
2020/12/08 09:23:47;;;;;;;3.15;1.30;;;;;;;7.51;71.66;98991.03;4954901;28;98443;-77
2020/12/08 09:26:13;;;;;;;1.92;1.83;;;;;;;7.66;71.62;98988.47;4964907;28;98444;-76
2020/12/08 09:28:40;;;;;;;1.70;1.60;;;;;;;7.74;70.80;98992.28;4954134;28;97998;-77
2020/12/08 09:31:06;;;;;;;5.88;3.20;;;;;;;7.70;71.86;98987.38;4957436;28;98110;-74
2020/12/08 09:33:32;;;;;;;1.75;1.65;;;;;;;7.70;71.41;98993.41;4956333;28;98617;-77
2020/12/08 09:35:59;;;;;;;1.92;1.70;;;;;;;7.81;71.09;98983.22;4938896;28;98491;-74
2020/12/08 09:38:25;;;;;;;2.05;1.88;;;;;;;7.85;71.42;98979.53;4955074;28;96618;-77
2020/12/08 09:40:51;;;;;;;1.60;1.50;;;;;;;7.94;70.85;98975.56;4955465;28;97320;-66
2020/12/08 09:43:23;;;;;;;2.22;2.00;;;;;;;7.95;70.65;98982.41;4958906;28;98514;-68
2020/12/08 09:45:50;;;;;;;2.50;2.30;;;;;;;8.00;70.44;98969.19;4956297;28;98722;-67
2020/12/08 09:48:16;;;;;;;1.60;1.50;;;;;;;8.01;70.55;98965.66;4954258;28;97826;-70
2020/12/08 09:50:42;;;;;;;1.98;1.75;;;;;;;8.04;70.25;98968.03;4955357;28;96710;-68
2020/12/08 09:53:08;;;;;;;1.63;1.52;;;;;;;7.97;69.94;98967.59;4953179;28;99040;-67
2020/12/08 09:55:35;;;;;;;3.97;2.60;;;;;;;7.98;70.81;98976.19;4954542;28;98510;-71
2020/12/08 09:58:01;;;;;;;2.70;2.35;;;;;;;8.05;70.55;98983.53;4956639;28;96782;-67
2020/12/08 10:00:28;;;;;;;4.32;3.50;;;;;;;8.03;70.66;98971.56;4958223;28;96636;-70
2020/12/08 10:02:54;;;;;;;2.63;2.10;;;;;;;8.10;70.62;98975.50;4958246;28;98606;-67
2020/12/08 10:05:20;;;;;;;2.38;2.10;;;;;;;8.11;70.65;98970.19;4956914;28;98604;-70
2020/12/08 10:07:47;;;;;;;4.18;2.90;;;;;;;8.08;71.14;98965.19;4956262;28;96663;-65
2020/12/08 10:10:13;;;;;;;5.72;2.47;;;;;;;8.17;71.24;98968.16;4954170;28;97781;-66
2020/12/08 10:12:40;;;;;;;2.38;2.17;;;;;;;8.13;70.92;98957.13;4954913;28;98801;-69
2020/12/08 10:15:06;;;;;;;3.92;3.25;;;;;;;8.03;70.81;98951.63;4955939;28;98605;-70
2020/12/08 10:17:32;;;;;;;1.90;1.80;;;;;;;8.09;70.28;98951.25;4953082;28;96707;-70
2020/12/08 10:19:59;;;;;;;2.17;1.98;;;;;;;8.11;70.16;98957.22;4953220;28;97923;-68
2020/12/08 10:22:25;;;;;;;2.83;2.40;;;;;;;8.11;70.10;98953.78;4953809;28;98442;-70
2020/12/08 10:24:51;;;;;;;3.72;2.85;;;;;;;8.13;69.79;98952.75;4949230;28;98536;-70
2020/12/08 10:27:18;;;;;;;3.10;2.10;;;;;;;8.24;69.79;98944.31;4951301;28;96981;-69
2020/12/08 10:29:44;;;;;;;2.28;2.00;;;;;;;8.19;70.13;98942.94;4952502;28;96953;-70
2020/12/08 10:32:10;;;;;;;1.73;1.63;;;;;;;8.12;69.69;98940.72;4950986;28;98645;-68
2020/12/08 10:34:37;;;;;;;2.00;1.88;;;;;;;8.08;70.52;98938.41;4949510;28;98449;-69
2020/12/08 10:37:04;;;;;;;1.65;1.55;;;;;;;8.17;69.99;98939.59;4948324;28;96764;-69
2020/12/08 10:39:31;;;;;;;1.40;1.30;;;;;;;8.04;69.57;98944.69;4946125;28;96872;-69
2020/12/08 10:41:58;;;;;;;1.90;1.60;;;;;;;8.09;69.65;98945.25;4951461;28;98477;-68
2020/12/08 10:44:25;;;;;;;2.10;1.60;;;;;;;8.14;69.41;98940.63;4942081;28;98727;-69
2020/12/08 10:46:52;;;;;;;1.80;1.70;;;;;;;8.17;69.67;98937.00;4940914;28;98354;-68
2020/12/08 10:49:19;;;;;;;1.58;1.48;;;;;;;8.19;69.87;98927.34;4949692;28;97119;-68
2020/12/08 10:51:45;;;;;;;2.75;2.10;;;;;;;8.12;69.83;98929.50;4951496;28;98873;-69
2020/12/08 10:54:12;;;;;;;4.15;3.53;;;;;;;7.99;71.35;98925.97;4951828;28;98749;-68
2020/12/08 10:56:39;;;;;;;6.72;4.65;;;;;;;7.99;70.58;98925.97;4953314;28;96569;-69
2020/12/08 10:59:05;;;;;;;4.05;3.22;;;;;;;7.99;71.21;98928.56;4953064;28;97121;-69
2020/12/08 11:01:37;;;;;;;3.53;2.80;;;;;;;7.98;71.32;98924.31;4952505;28;98696;-68
2020/12/08 11:04:04;;;;;;;3.05;2.85;;;;;;;7.93;71.85;98923.75;4952737;28;98863;-68
2020/12/08 11:06:31;;;;;;;3.25;2.30;;;;;;;7.97;71.15;98922.63;4943503;28;97695;-69
2020/12/08 11:08:58;;;;;;;2.13;1.92;;;;;;;7.93;71.66;98929.75;4940539;28;99373;-68
2020/12/08 11:11:29;;;;;;;2.85;2.20;;;;;;;8.00;70.87;98925.06;4951935;28;98432;-68
2020/12/08 11:13:56;;;;;;;3.08;2.10;;;;;;;8.07;71.33;98915.97;4939072;28;98542;-68
2020/12/08 11:16:23;;;;;;;2.47;2.00;;;;;;;8.13;71.23;98916.41;4937942;28;97773;-68
2020/12/08 11:18:49;;;;;;;3.53;1.75;;;;;;;7.97;70.94;98920.03;4947111;28;98970;-67
2020/12/08 11:21:22;;;;;;;3.70;1.90;;;;;;;8.03;71.16;98914.47;4942454;28;98336;-66
2020/12/08 11:23:48;;;;;;;2.58;2.38;;;;;;;8.13;71.02;98915.59;4940154;28;98909;-68
2020/12/08 11:26:15;;;;;;;3.75;2.47;;;;;;;8.11;70.48;98907.06;4939539;28;98526;-74
2020/12/08 11:28:41;;;;;;;2.17;2.05;;;;;;;8.05;71.46;98908.28;4942089;28;97113;-69
2020/12/08 11:31:07;;;;;;;5.47;3.70;;;;;;;7.93;71.38;98902.97;4940230;28;98577;-60
2020/12/08 11:33:43;;;;;;;1.70;1.60;;;;;;;8.04;71.25;98904.03;4947328;28;99209;-62
2020/12/08 11:36:10;;;;;;;2.22;2.13;;;;;;;8.05;71.49;98891.88;4945277;28;97235;-62
2020/12/08 11:38:36;;;;;;;3.70;2.53;;;;;;;7.97;72.25;98888.91;4940021;28;99671;-62
2020/12/08 11:41:03;;;;;;;2.45;2.20;;;;;;;8.11;71.53;98888.91;4941411;28;98474;-61